Time;durP1;ratioP1;P1;durP2;ratioP2;P2;SDS_P1;SDS_P2;PMS_P1;PMS_P2;Temp;Humidity;BMP_temperature;BMP_pressure;BME280_temperature;BME280_humidity;BME280_pressure;Samples;Min_cycle;Max_cycle;Signal;HPM_P1;HPM_P2
2023/03/12 00:02:07;;;;;;;20.73;8.70;;;;;;;2.80;68.21;100727.88;5047804;28;20033;-55
2023/03/12 00:04:35;;;;;;;21.35;8.98;;;;;;;2.90;68.37;100724.63;5053523;28;20076;-52
2023/03/12 00:07:05;;;;;;;22.98;8.32;;;;;;;2.85;67.09;100727.53;5046816;28;20048;-48
2023/03/12 00:09:36;;;;;;;25.55;8.32;;;;;;;2.82;67.09;100723.34;5051309;28;20070;-52
2023/03/12 00:12:03;;;;;;;23.97;10.53;;;;;;;2.77;67.22;100724.63;5044529;28;20045;-46
2023/03/12 00:14:30;;;;;;;17.48;8.93;;;;;;;2.74;66.47;100720.41;5048834;28;20341;-47
2023/03/12 00:16:57;;;;;;;21.17;7.55;;;;;;;2.83;65.68;100724.19;5047506;28;20103;-48
2023/03/12 00:19:25;;;;;;;17.45;7.25;;;;;;;2.82;65.98;100725.13;5047160;28;20041;-50
2023/03/12 00:21:51;;;;;;;67.43;33.28;;;;;;;2.74;65.37;100723.03;5051436;28;20415;-52
2023/03/12 00:24:18;;;;;;;17.83;9.13;;;;;;;2.69;65.70;100715.50;5046265;28;20041;-50
2023/03/12 00:26:45;;;;;;;17.98;6.75;;;;;;;2.73;65.62;100718.75;5049562;28;20048;-53
2023/03/12 00:29:11;;;;;;;20.48;7.03;;;;;;;2.66;65.91;100715.69;5044572;28;20041;-51
2023/03/12 00:31:38;;;;;;;17.60;7.68;;;;;;;2.64;66.00;100714.97;5050032;28;20045;-52
2023/03/12 00:34:05;;;;;;;16.25;6.60;;;;;;;2.65;65.72;100714.00;5053045;28;20481;-51
2023/03/12 00:36:32;;;;;;;15.80;6.97;;;;;;;2.65;66.38;100708.75;5047079;28;20128;-53
2023/03/12 00:38:59;;;;;;;18.20;6.82;;;;;;;2.71;65.14;100709.28;5052889;28;20056;-50
2023/03/12 00:41:27;;;;;;;15.77;6.50;;;;;;;2.62;65.68;100702.88;5051108;28;20049;-49
2023/03/12 00:43:54;;;;;;;14.73;6.57;;;;;;;2.58;64.89;100701.44;5050846;28;20402;-53
2023/03/12 00:46:22;;;;;;;14.32;6.32;;;;;;;2.62;65.25;100703.75;5046165;28;20572;-51
2023/03/12 00:48:49;;;;;;;14.57;6.00;;;;;;;2.60;65.62;100700.41;5051851;28;20055;-51
2023/03/12 00:51:15;;;;;;;15.95;6.50;;;;;;;2.50;65.14;100701.94;5051697;28;20375;-51
2023/03/12 00:53:42;;;;;;;15.48;7.07;;;;;;;2.64;65.39;100699.25;5047254;28;20128;-54
2023/03/12 00:56:09;;;;;;;28.80;12.38;;;;;;;2.64;64.65;100694.00;5053307;28;20402;-50
2023/03/12 00:58:36;;;;;;;20.08;7.20;;;;;;;2.63;65.35;100691.47;5048316;28;20486;-52
2023/03/12 01:01:04;;;;;;;18.42;5.88;;;;;;;2.71;64.68;100681.34;5051047;28;20065;-50
2023/03/12 01:03:31;;;;;;;12.98;5.75;;;;;;;2.73;64.08;100676.84;5043137;28;20056;-57
2023/03/12 01:05:58;;;;;;;29.00;12.07;;;;;;;2.64;64.22;100680.09;5062371;28;20095;-51
2023/03/12 01:08:25;;;;;;;15.40;7.35;;;;;;;2.65;64.62;100676.50;5047631;28;20098;-58
2023/03/12 01:10:52;;;;;;;16.35;6.18;;;;;;;2.69;63.83;100684.06;5047296;28;20060;-59
2023/03/12 01:13:19;;;;;;;19.73;8.18;;;;;;;2.59;63.96;100674.31;5040226;28;20061;-51
2023/03/12 01:15:46;;;;;;;56.28;24.02;;;;;;;2.66;64.89;100676.41;5048770;28;20478;-49
2023/03/12 01:18:13;;;;;;;25.52;9.57;;;;;;;2.62;64.67;100677.56;5042383;28;20067;-57
2023/03/12 01:20:40;;;;;;;18.05;6.38;;;;;;;2.68;64.82;100663.19;5052237;28;20041;-51
2023/03/12 01:23:07;;;;;;;16.85;8.43;;;;;;;2.71;64.71;100675.25;5050877;28;20052;-51
2023/03/12 01:25:35;;;;;;;12.48;5.72;;;;;;;2.71;64.76;100657.75;5046848;28;20095;-48
2023/03/12 01:28:02;;;;;;;15.25;5.97;;;;;;;2.66;65.49;100665.09;5052265;28;20132;-52
2023/03/12 01:30:29;;;;;;;14.95;5.60;;;;;;;2.56;65.36;100667.47;5045683;28;20044;-52
2023/03/12 01:32:56;;;;;;;12.05;5.32;;;;;;;2.64;65.96;100659.94;5051587;28;20068;-52
2023/03/12 01:35:23;;;;;;;12.82;5.10;;;;;;;2.57;65.52;100658.69;5044145;28;20055;-50
2023/03/12 01:37:51;;;;;;;14.85;5.20;;;;;;;2.63;65.67;100654.81;5035302;28;20056;-49
2023/03/12 01:40:24;;;;;;;12.02;5.15;;;;;;;2.65;65.33;100656.38;5039577;28;20084;-50
2023/03/12 01:42:53;;;;;;;12.60;5.32;;;;;;;2.57;65.65;100650.84;5051631;28;20522;-53
2023/03/12 01:46:00;;;;;;;19.13;5.55;;;;;;;2.58;65.73;100639.41;5052300;28;20037;-51
2023/03/12 01:48:33;;;;;;;13.65;4.85;;;;;;;2.57;65.79;100629.06;5047611;28;20049;-52
2023/03/12 01:51:01;;;;;;;16.13;5.13;;;;;;;2.54;66.90;100627.47;5047183;28;20049;-52
2023/03/12 01:53:29;;;;;;;13.48;5.22;;;;;;;2.46;67.43;100630.63;5052357;28;20052;-50
2023/03/12 01:55:59;;;;;;;12.20;5.30;;;;;;;2.48;67.14;100633.13;5048857;28;20045;-49
2023/03/12 01:58:29;;;;;;;13.38;4.75;;;;;;;2.52;67.15;100626.75;5045531;28;20052;-52
2023/03/12 02:00:56;;;;;;;11.75;4.90;;;;;;;2.49;67.39;100625.19;5054094;28;20112;-50
2023/03/12 02:03:23;;;;;;;13.52;5.43;;;;;;;2.56;66.56;100628.19;5049506;28;20033;-49
2023/03/12 02:06:01;;;;;;;12.75;4.88;;;;;;;2.58;66.20;100625.47;5053176;28;20053;-49
2023/03/12 02:08:29;;;;;;;11.65;5.10;;;;;;;2.60;67.01;100637.53;5044083;28;20103;-52
2023/03/12 02:10:56;;;;;;;12.95;5.43;;;;;;;2.57;66.92;100635.13;5027387;28;20222;-49
2023/03/12 02:13:23;;;;;;;15.68;5.00;;;;;;;2.46;65.36;100627.16;5059026;28;20040;-50
2023/03/12 02:15:49;;;;;;;12.60;4.88;;;;;;;2.50;65.54;100613.75;5038335;28;20045;-51
2023/03/12 02:18:18;;;;;;;12.50;4.80;;;;;;;2.56;66.46;100609.88;5050424;28;20037;-51
2023/03/12 02:21:14;;;;;;;16.58;6.03;;;;;;;2.65;66.57;100601.38;5029452;28;20503;-52
2023/03/12 02:23:53;;;;;;;18.58;8.20;;;;;;;2.61;66.97;100599.09;5033924;28;20029;-50
2023/03/12 02:26:23;;;;;;;12.30;5.30;;;;;;;2.66;66.57;100602.22;5047066;28;20469;-51
2023/03/12 02:28:51;;;;;;;11.85;5.25;;;;;;;2.55;66.59;100607.34;5043348;28;20790;-52
2023/03/12 02:31:21;;;;;;;10.98;5.00;;;;;;;2.55;67.00;100607.34;5046099;28;20132;-52
2023/03/12 02:33:48;;;;;;;13.73;5.53;;;;;;;2.59;67.19;100606.22;5038908;28;20037;-50
2023/03/12 02:36:15;;;;;;;11.30;4.97;;;;;;;2.64;66.09;100609.34;5040658;28;20387;-51
2023/03/12 02:38:45;;;;;;;13.55;4.88;;;;;;;2.62;66.72;100612.09;5042192;28;20048;-49
2023/03/12 02:41:35;;;;;;;11.20;4.65;;;;;;;2.65;65.81;100609.22;5028716;28;20055;-51
2023/03/12 02:44:10;;;;;;;13.27;4.55;;;;;;;2.70;66.57;100611.53;5061184;28;20048;-51
2023/03/12 02:46:42;;;;;;;17.02;6.00;;;;;;;2.79;65.94;100610.06;5030945;28;20055;-53
2023/03/12 02:49:12;;;;;;;17.25;6.95;;;;;;;2.78;65.65;100600.53;5049179;28;20052;-51
2023/03/12 02:51:41;;;;;;;33.55;12.52;;;;;;;2.78;65.87;100600.53;5028220;28;20710;-52
2023/03/12 02:54:08;;;;;;;19.90;9.95;;;;;;;2.75;66.27;100598.97;5050751;28;20102;-51
2023/03/12 02:56:35;;;;;;;13.98;5.43;;;;;;;2.76;66.26;100598.00;5026989;28;20737;-52
2023/03/12 02:59:03;;;;;;;11.23;4.60;;;;;;;2.82;65.33;100589.75;5048211;28;20405;-52
2023/03/12 03:01:33;;;;;;;14.57;4.50;;;;;;;2.77;65.90;100576.13;5030776;28;20045;-52
2023/03/12 03:04:02;;;;;;;11.88;4.88;;;;;;;2.72;66.14;100572.16;5053246;28;20079;-52
2023/03/12 03:06:30;;;;;;;13.63;4.88;;;;;;;2.73;66.46;100573.81;5029549;28;20402;-50
2023/03/12 03:08:58;;;;;;;13.13;4.72;;;;;;;2.77;65.70;100570.03;5045973;28;20075;-52
2023/03/12 03:11:25;;;;;;;15.00;5.03;;;;;;;2.67;66.22;100567.22;5032857;28;20101;-50
2023/03/12 03:13:54;;;;;;;14.95;5.35;;;;;;;2.68;65.29;100569.72;5045869;28;20747;-49
2023/03/12 03:16:23;;;;;;;15.45;5.30;;;;;;;2.66;65.16;100568.19;5046842;28;20095;-52
2023/03/12 03:18:50;;;;;;;12.35;4.90;;;;;;;2.77;65.11;100570.88;5050684;28;20088;-52
2023/03/12 03:21:17;;;;;;;11.02;4.63;;;;;;;2.81;65.21;100572.31;5049628;28;20053;-51
2023/03/12 03:23:46;;;;;;;12.20;4.75;;;;;;;2.82;64.84;100566.16;5055548;28;20037;-50
2023/03/12 03:26:14;;;;;;;11.27;5.30;;;;;;;2.93;65.04;100561.91;5050369;28;20128;-52
2023/03/12 03:28:41;;;;;;;11.82;4.60;;;;;;;2.94;65.15;100556.56;5054432;28;20405;-49
2023/03/12 03:31:08;;;;;;;12.63;5.03;;;;;;;2.86;65.29;100562.38;5047330;28;20079;-52
2023/03/12 03:33:38;;;;;;;15.32;5.50;;;;;;;2.68;65.04;100559.25;5056014;28;20057;-51
2023/03/12 03:36:07;;;;;;;11.27;4.60;;;;;;;2.73;64.64;100564.19;5045863;28;20051;-51
2023/03/12 03:38:40;;;;;;;15.05;5.15;;;;;;;2.65;65.41;100561.25;5050445;28;20064;-52
2023/03/12 03:41:07;;;;;;;12.75;4.50;;;;;;;2.75;65.15;100564.06;5049646;28;20049;-49
2023/03/12 03:43:39;;;;;;;14.00;4.40;;;;;;;2.74;65.76;100571.09;5054823;28;20390;-49
2023/03/12 03:46:07;;;;;;;10.98;4.40;;;;;;;2.78;65.40;100559.44;5050476;28;20049;-52
2023/03/12 03:48:38;;;;;;;11.02;4.20;;;;;;;2.66;66.08;100558.53;5050731;28;20051;-52
2023/03/12 03:51:08;;;;;;;13.95;4.43;;;;;;;2.80;66.41;100565.44;5054453;28;20457;-52
2023/03/12 03:53:38;;;;;;;;;;;;;;;2.83;64.89;100566.97;5051013;28;20707;-50
2023/03/12 03:56:07;;;;;;;14.30;4.28;;;;;;;2.84;65.01;100561.63;5053224;28;20282;-52
2023/03/12 03:58:37;;;;;;;14.90;5.32;;;;;;;2.89;65.21;100556.06;5048133;28;20045;-53
2023/03/12 04:01:05;;;;;;;13.68;4.00;;;;;;;2.96;64.63;100559.91;5052651;28;20083;-51
2023/03/12 04:03:33;;;;;;;14.90;4.45;;;;;;;2.92;64.92;100557.66;5046394;28;20041;-52
2023/03/12 04:06:04;;;;;;;15.38;5.72;;;;;;;2.85;66.10;100557.22;5051938;28;20107;-52
2023/03/12 04:08:35;;;;;;;14.65;4.25;;;;;;;2.90;65.88;100559.53;5049023;28;20490;-52
2023/03/12 04:11:08;;;;;;;14.73;4.65;;;;;;;2.93;65.18;100547.06;5065446;28;20098;-53
2023/03/12 04:13:35;;;;;;;18.23;5.32;;;;;;;2.94;65.76;100561.81;5049163;28;20086;-51
2023/03/12 04:16:02;;;;;;;13.65;4.50;;;;;;;2.71;66.22;100549.50;5049914;28;20136;-52
2023/03/12 04:18:30;;;;;;;11.68;4.30;;;;;;;2.76;67.28;100548.22;5050602;28;20548;-51
2023/03/12 04:20:58;;;;;;;13.30;4.10;;;;;;;2.79;66.96;100540.16;5049321;28;20052;-50
2023/03/12 04:23:25;;;;;;;11.52;4.50;;;;;;;2.68;66.91;100545.34;5053163;28;20072;-51
2023/03/12 04:25:52;;;;;;;12.88;4.60;;;;;;;2.75;67.66;100538.72;5048928;28;20047;-50
2023/03/12 04:28:19;;;;;;;12.35;4.10;;;;;;;2.88;67.28;100546.53;5052437;28;20060;-52
2023/03/12 04:30:55;;;;;;;11.10;4.20;;;;;;;2.83;66.52;100544.22;5048045;28;20060;-53
2023/03/12 04:33:21;;;;;;;12.95;3.90;;;;;;;2.96;65.77;100546.00;5051628;28;20060;-52
2023/03/12 04:35:51;;;;;;;12.82;4.35;;;;;;;2.86;65.33;100543.19;5073207;28;20045;-51
2023/03/12 04:38:20;;;;;;;12.43;4.38;;;;;;;2.90;65.57;100533.34;5038402;28;20049;-53
2023/03/12 04:41:06;;;;;;;10.88;3.80;;;;;;;2.86;65.65;100524.84;5069169;28;20090;-50
2023/03/12 04:43:35;;;;;;;11.38;4.47;;;;;;;2.88;65.67;100528.19;5045711;28;20029;-50
2023/03/12 04:46:02;;;;;;;10.02;4.07;;;;;;;2.95;66.33;100529.44;5067343;28;20088;-55
2023/03/12 04:48:29;;;;;;;15.27;4.90;;;;;;;2.99;66.24;100543.97;5048195;28;20052;-53
2023/03/12 04:50:56;;;;;;;21.45;4.07;;;;;;;3.05;64.36;100529.59;5052626;28;20048;-53
2023/03/12 04:53:23;;;;;;;10.32;4.05;;;;;;;2.94;65.90;100533.00;5044798;28;20451;-53
2023/03/12 04:55:50;;;;;;;11.40;4.18;;;;;;;3.02;65.58;100532.44;5054002;28;20061;-53
2023/03/12 04:58:18;;;;;;;10.77;3.83;;;;;;;3.06;66.48;100524.25;5048924;28;20048;-52
2023/03/12 05:00:46;;;;;;;11.48;4.07;;;;;;;3.06;66.66;100521.63;5046742;28;20041;-51
2023/03/12 05:03:13;;;;;;;16.30;4.18;;;;;;;3.06;67.07;100513.75;5046020;28;20445;-53
2023/03/12 05:05:41;;;;;;;10.60;4.07;;;;;;;3.07;66.45;100511.97;5052751;28;20490;-50
2023/03/12 05:08:09;;;;;;;11.48;3.92;;;;;;;3.23;66.65;100514.31;5046954;28;20053;-51
2023/03/12 05:10:36;;;;;;;11.48;4.10;;;;;;;3.10;67.58;100503.91;5067705;28;20122;-50
2023/03/12 05:13:11;;;;;;;12.88;3.90;;;;;;;3.03;68.73;100494.81;5053177;28;20045;-50
2023/03/12 05:15:38;;;;;;;16.23;4.20;;;;;;;2.96;70.74;100502.25;5047195;28;20045;-50
2023/03/12 05:18:04;;;;;;;13.32;4.43;;;;;;;2.97;72.96;100493.47;5053968;28;20048;-51
2023/03/12 05:20:31;;;;;;;12.88;4.30;;;;;;;3.01;73.30;100479.19;5048546;28;20064;-50
2023/03/12 05:22:58;;;;;;;14.52;4.15;;;;;;;3.01;73.70;100473.94;5056766;28;20033;-49
2023/03/12 05:25:25;;;;;;;10.00;3.90;;;;;;;2.86;75.09;100457.56;5058776;28;20120;-50
2023/03/12 05:27:52;;;;;;;10.27;4.15;;;;;;;2.85;75.59;100444.56;5051982;28;20418;-53
2023/03/12 05:30:19;;;;;;;13.10;4.20;;;;;;;2.83;74.60;100462.19;5048440;28;20053;-52
2023/03/12 05:32:45;;;;;;;9.52;3.83;;;;;;;2.77;75.29;100457.41;5052421;28;20094;-53
2023/03/12 05:35:13;;;;;;;12.02;3.83;;;;;;;2.77;75.12;100460.03;5048803;28;20079;-52
2023/03/12 05:37:41;;;;;;;9.00;4.00;;;;;;;2.95;73.09;100470.94;5051708;28;20047;-52
2023/03/12 05:40:11;;;;;;;10.13;3.72;;;;;;;2.92;73.50;100450.22;5048799;28;20517;-52
2023/03/12 05:42:37;;;;;;;14.27;4.13;;;;;;;2.74;75.28;100455.00;5049027;28;20082;-51
2023/03/12 05:45:07;;;;;;;22.55;5.43;;;;;;;2.75;73.69;100464.50;5051304;28;20425;-50
2023/03/12 05:47:35;;;;;;;12.27;4.13;;;;;;;2.72;75.21;100452.47;5048090;28;20080;-52
2023/03/12 05:50:02;;;;;;;13.85;3.90;;;;;;;2.92;73.21;100435.31;5052213;28;20052;-50
2023/03/12 05:52:29;;;;;;;12.65;4.13;;;;;;;2.76;75.05;100435.59;5047222;28;20080;-53
2023/03/12 05:54:56;;;;;;;13.50;3.90;;;;;;;2.71;75.10;100439.50;5051753;28;20037;-51
2023/03/12 05:57:23;;;;;;;15.70;3.92;;;;;;;2.68;75.28;100430.91;5043727;28;20044;-53
2023/03/12 05:59:49;;;;;;;11.95;4.10;;;;;;;2.75;75.56;100428.69;5051752;28;20045;-52
2023/03/12 06:02:16;;;;;;;11.18;3.47;;;;;;;2.86;75.23;100418.25;5050774;28;20044;-52
2023/03/12 06:04:43;;;;;;;14.43;4.00;;;;;;;2.84;76.26;100416.72;5048732;28;20082;-51
2023/03/12 06:07:10;;;;;;;10.80;3.92;;;;;;;2.62;78.52;100407.78;5052279;28;20060;-51
2023/03/12 06:09:40;;;;;;;12.40;4.00;;;;;;;2.75;77.86;100402.50;5052844;28;20052;-52
2023/03/12 06:12:09;;;;;;;11.27;3.95;;;;;;;2.57;80.00;100404.66;5051369;28;20053;-53
2023/03/12 06:14:36;;;;;;;12.57;4.00;;;;;;;2.60;81.52;100414.06;5044489;28;20111;-49
2023/03/12 06:17:03;;;;;;;9.63;3.85;;;;;;;2.54;83.02;100412.72;5050782;28;20378;-52
2023/03/12 06:19:30;;;;;;;14.27;4.03;;;;;;;2.49;85.13;100413.06;5046926;28;20065;-49
2023/03/12 06:21:57;;;;;;;13.90;4.53;;;;;;;2.45;86.58;100410.78;5050897;28;20453;-52
2023/03/12 06:24:25;;;;;;;10.73;3.92;;;;;;;2.36;88.82;100414.06;5047440;28;20045;-52
2023/03/12 06:26:55;;;;;;;11.23;4.40;;;;;;;2.39;89.75;100419.06;5050579;28;20080;-52
2023/03/12 06:29:22;;;;;;;12.35;4.60;;;;;;;2.33;91.07;100409.88;5055162;28;20048;-51
2023/03/12 06:31:51;;;;;;;11.65;4.72;;;;;;;2.28;92.22;100409.38;5050549;28;20453;-52
2023/03/12 06:34:17;;;;;;;14.32;5.40;;;;;;;2.19;93.26;100421.31;5064856;28;20505;-51
2023/03/12 06:36:44;;;;;;;13.98;5.20;;;;;;;2.32;92.67;100417.84;5050109;28;20053;-52
2023/03/12 06:39:11;;;;;;;14.75;4.85;;;;;;;2.27;92.48;100416.38;5054469;28;20062;-54
2023/03/12 06:41:37;;;;;;;15.38;4.80;;;;;;;2.35;92.33;100415.84;5047786;28;20048;-52
2023/03/12 06:44:05;;;;;;;12.70;5.05;;;;;;;2.41;92.31;100415.38;5052216;28;20124;-51
2023/03/12 06:46:31;;;;;;;16.42;4.40;;;;;;;2.54;91.52;100417.13;5043234;28;20117;-50
2023/03/12 06:48:58;;;;;;;13.95;4.65;;;;;;;2.53;91.64;100418.94;5050097;28;20088;-51
2023/03/12 06:51:25;;;;;;;13.27;4.43;;;;;;;2.56;91.59;100421.31;5049770;28;20099;-50
2023/03/12 06:53:51;;;;;;;10.27;3.95;;;;;;;2.56;90.14;100425.72;5052471;28;20064;-52
2023/03/12 06:56:18;;;;;;;11.20;4.60;;;;;;;2.46;91.59;100426.38;5041296;28;20094;-53
2023/03/12 06:58:45;;;;;;;11.27;3.90;;;;;;;2.42;90.84;100427.56;5051625;28;20037;-52
2023/03/12 07:01:11;;;;;;;11.07;3.90;;;;;;;2.52;90.27;100425.09;5054921;28;20049;-52
2023/03/12 07:03:38;;;;;;;14.18;4.13;;;;;;;2.29;91.27;100424.09;5048541;28;20045;-51
2023/03/12 07:06:12;;;;;;;9.52;3.60;;;;;;;2.44;90.30;100427.44;5048230;28;20433;-53
2023/03/12 07:08:39;;;;;;;14.77;4.32;;;;;;;2.42;91.43;100421.44;5050169;28;20133;-51
2023/03/12 07:11:06;;;;;;;14.73;4.32;;;;;;;2.42;90.97;100427.56;5071898;28;20076;-51
2023/03/12 07:13:33;;;;;;;11.77;4.32;;;;;;;2.38;90.87;100428.69;5051658;28;20045;-52
2023/03/12 07:16:02;;;;;;;11.02;4.35;;;;;;;2.45;90.62;100426.47;5055380;28;20077;-52
2023/03/12 07:18:30;;;;;;;12.60;3.80;;;;;;;2.50;90.23;100427.81;5052425;28;20490;-52
2023/03/12 07:20:57;;;;;;;16.08;4.38;;;;;;;2.60;89.68;100401.84;5050840;28;20123;-50
2023/03/12 07:23:23;;;;;;;14.82;4.60;;;;;;;2.48;89.70;100407.94;5055727;28;20051;-52
2023/03/12 07:25:51;;;;;;;12.13;4.30;;;;;;;2.58;89.68;100410.72;5066604;28;20037;-52
2023/03/12 07:28:18;;;;;;;13.20;3.92;;;;;;;2.65;88.94;100402.31;5054927;28;20135;-52
2023/03/12 07:30:49;;;;;;;13.05;4.28;;;;;;;2.53;89.21;100404.97;5049721;28;20041;-49
2023/03/12 07:33:19;;;;;;;17.08;4.50;;;;;;;2.55;89.45;100395.22;5055391;28;20045;-52
2023/03/12 07:35:47;;;;;;;10.75;3.92;;;;;;;2.67;88.79;100395.19;5051002;28;20746;-53
2023/03/12 07:38:16;;;;;;;10.23;3.72;;;;;;;2.65;89.07;100407.53;5067144;28;20123;-51
2023/03/12 07:40:43;;;;;;;10.98;3.90;;;;;;;2.60;88.78;100396.59;5071899;28;20097;-52
2023/03/12 07:43:11;;;;;;;11.50;4.15;;;;;;;2.74;88.03;100400.81;5064032;28;20098;-52
2023/03/12 07:45:40;;;;;;;13.35;3.97;;;;;;;2.68;89.01;100398.66;5054152;28;20045;-51
2023/03/12 07:48:07;;;;;;;13.13;4.35;;;;;;;2.74;89.26;100402.59;5051003;28;20041;-52
2023/03/12 07:50:35;;;;;;;16.25;4.30;;;;;;;2.88;88.59;100397.19;5053608;28;20049;-52
2023/03/12 07:53:03;;;;;;;13.63;3.90;;;;;;;2.88;87.90;100400.63;5047037;28;20140;-51
2023/03/12 07:55:31;;;;;;;13.38;4.07;;;;;;;2.91;88.21;100398.75;5054748;28;20041;-51
2023/03/12 07:57:58;;;;;;;17.60;4.70;;;;;;;2.80;88.11;100389.91;5050717;28;20495;-51
2023/03/12 08:00:26;;;;;;;12.02;4.28;;;;;;;2.82;89.07;100395.00;5051912;28;20053;-52
2023/03/12 08:02:53;;;;;;;9.68;4.07;;;;;;;2.92;88.68;100398.63;5049522;28;20072;-50
2023/03/12 08:05:23;;;;;;;15.80;4.20;;;;;;;2.97;88.34;100407.00;5045429;28;20048;-52
2023/03/12 08:07:51;;;;;;;13.50;4.35;;;;;;;3.03;88.01;100413.56;5065844;28;20056;-49
2023/03/12 08:10:19;;;;;;;10.88;4.40;;;;;;;3.07;88.75;100413.25;5051207;28;20084;-51
2023/03/12 08:12:46;;;;;;;10.70;4.68;;;;;;;3.10;88.45;100411.34;5046885;28;20068;-50
2023/03/12 08:15:13;;;;;;;10.85;4.15;;;;;;;3.26;87.21;100401.38;5049594;28;20041;-51
2023/03/12 08:17:41;;;;;;;11.98;4.47;;;;;;;3.30;86.59;100401.97;5054446;28;20045;-49
2023/03/12 08:20:08;;;;;;;15.48;4.82;;;;;;;3.10;87.93;100393.00;5056142;28;20098;-49
2023/03/12 08:22:36;;;;;;;13.07;4.47;;;;;;;3.08;88.36;100399.16;5053973;28;20041;-51
2023/03/12 08:25:03;;;;;;;11.73;4.47;;;;;;;3.21;89.28;100406.13;5048549;28;20564;-53
2023/03/12 08:27:30;;;;;;;11.27;4.28;;;;;;;3.32;89.43;100408.75;5053473;28;20437;-52
2023/03/12 08:29:57;;;;;;;12.90;4.13;;;;;;;3.29;91.35;100408.16;5053129;28;20052;-51
2023/03/12 08:32:24;;;;;;;16.77;4.35;;;;;;;3.30;92.85;100413.28;5048548;28;20052;-52
2023/03/12 08:34:51;;;;;;;10.73;5.00;;;;;;;3.31;93.96;100401.88;5050193;28;20531;-52
2023/03/12 08:37:18;;;;;;;16.48;4.82;;;;;;;3.38;94.27;100407.47;5055110;28;20069;-51
2023/03/12 08:39:45;;;;;;;11.13;4.38;;;;;;;3.32;94.91;100403.53;5053588;28;20391;-48
2023/03/12 08:42:11;;;;;;;12.05;4.45;;;;;;;3.44;94.91;100397.34;5047417;28;20049;-50
2023/03/12 08:44:38;;;;;;;13.45;5.07;;;;;;;3.54;95.49;100394.84;5060070;28;20072;-52
2023/03/12 08:47:05;;;;;;;15.35;4.97;;;;;;;3.30;98.57;100392.31;5042077;28;20059;-53
2023/03/12 08:49:32;;;;;;;11.80;4.40;;;;;;;3.24;98.44;100384.94;5052435;28;20080;-50
2023/03/12 08:51:59;;;;;;;11.40;5.00;;;;;;;3.26;99.07;100380.41;5052466;28;20045;-50
2023/03/12 08:54:26;;;;;;;11.20;5.05;;;;;;;3.25;100.00;100378.72;5049726;28;20029;-52
2023/03/12 08:56:53;;;;;;;12.32;5.25;;;;;;;3.30;100.00;100379.22;5047079;28;20132;-50
2023/03/12 08:59:21;;;;;;;12.98;5.03;;;;;;;3.31;100.00;100390.53;5048025;28;20048;-50
2023/03/12 09:01:48;;;;;;;10.80;5.03;;;;;;;3.33;100.00;100386.00;5047003;28;20052;-48
2023/03/12 09:04:15;;;;;;;11.73;5.13;;;;;;;3.42;100.00;100391.41;5063635;28;21890;-50
2023/03/12 09:06:42;;;;;;;10.45;4.90;;;;;;;3.47;100.00;100391.03;5052643;28;20041;-51
2023/03/12 09:09:09;;;;;;;11.77;4.93;;;;;;;3.42;100.00;100390.53;5052075;28;20094;-49
2023/03/12 09:11:38;;;;;;;11.13;4.93;;;;;;;3.50;100.00;100396.06;5060273;28;20095;-51
2023/03/12 09:14:05;;;;;;;12.55;5.00;;;;;;;3.32;100.00;100397.44;5045967;28;20166;-51
2023/03/12 09:16:52;;;;;;;11.85;4.82;;;;;;;3.46;100.00;100398.06;5051114;28;20051;-48
2023/03/12 09:19:20;;;;;;;12.52;4.90;;;;;;;3.24;100.00;100385.75;5051628;28;20032;-51
2023/03/12 09:21:46;;;;;;;16.08;5.55;;;;;;;3.38;100.00;100394.34;5048788;28;20056;-49
2023/03/12 09:24:13;;;;;;;13.07;5.53;;;;;;;3.33;100.00;100388.63;5049344;28;20057;-50
2023/03/12 09:26:40;;;;;;;12.25;5.75;;;;;;;3.42;100.00;100395.78;5066328;28;20044;-50
2023/03/12 09:29:06;;;;;;;11.93;5.65;;;;;;;3.42;100.00;100394.03;5052203;28;20057;-49
2023/03/12 09:31:35;;;;;;;14.43;5.57;;;;;;;3.29;100.00;100392.44;5044657;28;20045;-49
2023/03/12 09:34:03;;;;;;;10.65;5.65;;;;;;;3.28;100.00;100396.84;5052697;28;20087;-50
2023/03/12 09:36:30;;;;;;;12.80;5.75;;;;;;;3.36;100.00;100404.13;5048721;28;20045;-49
2023/03/12 09:38:57;;;;;;;13.15;6.35;;;;;;;3.40;100.00;100398.56;5054973;28;20049;-49
2023/03/12 09:41:28;;;;;;;14.02;6.50;;;;;;;3.45;100.00;100385.91;5068821;28;20044;-49
2023/03/12 09:44:02;;;;;;;17.97;7.40;;;;;;;3.49;100.00;100396.16;5072829;28;20044;-51
2023/03/12 09:46:36;;;;;;;15.63;6.68;;;;;;;3.66;100.00;100400.97;5057993;28;20053;-52
2023/03/12 09:49:10;;;;;;;14.35;7.05;;;;;;;3.67;100.00;100392.13;5052658;28;20095;-50
2023/03/12 09:51:43;;;;;;;17.55;7.78;;;;;;;3.55;100.00;100393.09;5047375;28;20686;-51
2023/03/12 09:54:27;;;;;;;14.90;7.32;;;;;;;3.70;100.00;100406.81;5032766;28;20049;-51
2023/03/12 09:56:57;;;;;;;15.77;8.40;;;;;;;3.61;100.00;100421.47;5028241;28;20111;-51
2023/03/12 09:59:23;;;;;;;17.85;8.63;;;;;;;3.65;100.00;100410.59;5032733;28;20045;-51
2023/03/12 10:01:56;;;;;;;15.80;9.07;;;;;;;3.78;100.00;100399.19;5027266;28;20220;-51
2023/03/12 10:07:23;;;;;;;16.98;9.85;;;;;;;3.82;100.00;100395.34;5110307;27;20368;-49
2023/03/12 10:10:09;;;;;;;23.25;10.27;;;;;;;3.78;100.00;100404.44;5104114;28;20083;-50
2023/03/12 10:13:10;;;;;;;21.23;10.77;;;;;;;3.90;100.00;100411.34;5110281;28;20135;-51
2023/03/12 10:18:37;;;;;;;27.17;12.93;;;;;;;4.14;100.00;100410.41;5099218;27;20420;-53
2023/03/12 10:21:18;;;;;;;35.65;15.52;;;;;;;4.18;100.00;100410.06;5047390;28;20054;-54
2023/03/12 10:24:07;;;;;;;28.38;14.07;;;;;;;4.05;100.00;100409.31;5098366;28;20052;-53
2023/03/12 10:26:39;;;;;;;31.73;13.77;;;;;;;4.02;100.00;100413.03;5091312;28;20036;-54
2023/03/12 10:29:14;;;;;;;29.60;14.27;;;;;;;4.19;100.00;100414.31;5096925;28;20047;-54
2023/03/12 10:32:10;;;;;;;28.40;14.77;;;;;;;4.27;100.00;100415.50;5093023;28;20040;-53
2023/03/12 10:37:39;;;;;;;33.75;15.95;;;;;;;4.34;100.00;100428.03;5135838;27;20171;-53
2023/03/12 10:40:13;;;;;;;31.65;16.83;;;;;;;4.37;100.00;100408.59;5146971;27;20039;-54
2023/03/12 10:42:40;;;;;;;32.28;18.55;;;;;;;4.39;100.00;100422.44;5126534;27;20046;-53
2023/03/12 10:47:56;;;;;;;33.38;17.65;;;;;;;4.70;100.00;100428.69;5152430;27;19923;-52
2023/03/12 10:50:25;;;;;;;31.73;18.60;;;;;;;4.74;100.00;100430.09;5131311;27;20082;-52
2023/03/12 10:53:12;;;;;;;35.53;19.20;;;;;;;4.85;100.00;100434.50;5130676;27;20046;-53
2023/03/12 10:55:39;;;;;;;30.02;16.58;;;;;;;4.90;100.00;100434.13;5109420;27;20039;-53
2023/03/12 10:58:06;;;;;;;32.75;17.60;;;;;;;4.96;100.00;100429.19;5136567;27;20058;-53
2023/03/12 11:00:32;;;;;;;25.42;15.27;;;;;;;5.04;100.00;100427.72;5125513;27;20058;-54
2023/03/12 11:03:02;;;;;;;23.17;14.40;;;;;;;5.13;100.00;100430.44;5140516;27;20043;-54
2023/03/12 11:05:33;;;;;;;26.08;14.85;;;;;;;5.23;100.00;100430.50;5131218;27;20042;-54
2023/03/12 11:08:02;;;;;;;30.73;15.10;;;;;;;5.20;100.00;100422.88;5144250;27;20605;-55
2023/03/12 11:10:47;;;;;;;22.50;14.25;;;;;;;5.29;100.00;100422.09;5127991;27;20131;-54
2023/03/12 11:13:33;;;;;;;21.83;12.93;;;;;;;5.36;100.00;100417.19;5144640;27;20055;-54
2023/03/12 11:16:23;;;;;;;21.40;12.82;;;;;;;5.37;100.00;100421.50;5120836;27;20051;-54
2023/03/12 11:19:06;;;;;;;20.33;12.13;;;;;;;5.31;100.00;100421.97;5138857;27;20051;-54
2023/03/12 11:21:37;;;;;;;23.20;13.85;;;;;;;5.46;100.00;100418.09;5108120;27;20054;-55
2023/03/12 11:24:10;;;;;;;26.33;14.07;;;;;;;5.47;100.00;100421.53;5143981;27;20661;-54
2023/03/12 11:26:48;;;;;;;23.75;14.50;;;;;;;5.57;100.00;100409.28;5122028;27;20046;-53
2023/03/12 11:29:24;;;;;;;19.92;12.95;;;;;;;5.56;100.00;100400.53;5148669;27;20051;-54
2023/03/12 11:32:32;;;;;;;21.50;13.13;;;;;;;5.60;100.00;100405.56;5119180;27;20035;-53
2023/03/12 11:34:59;;;;;;;26.02;15.00;;;;;;;5.62;100.00;100404.47;5135594;27;20087;-53
2023/03/12 11:38:06;;;;;;;23.83;14.75;;;;;;;5.77;100.00;100405.78;5121317;27;20058;-53
2023/03/12 11:40:51;;;;;;;24.05;14.85;;;;;;;5.84;100.00;100405.25;5140876;27;20516;-53
2023/03/12 11:43:47;;;;;;;45.05;25.35;;;;;;;5.98;100.00;100406.75;5134219;27;20051;-56
2023/03/12 11:49:14;;;;;;;24.63;14.43;;;;;;;6.00;100.00;100412.72;5105223;27;20388;-53